| Date | Time | Temp. (oF) | Dew Point (oF) | Rel. Hum. (%) | Press. (in.) | Wind Dir. | Wind Speed (mph) | Hourly Rainfall (in.) |
|
|---|---|---|---|---|---|---|---|---|---|
| 1 | 07/26 | 00:00 | 71 | 69 | 94 | 29.85 | NNE | 0 | 0.00 |
| 2 | 07/25 | 23:00 | 71 | 68 | 93 | 29.84 | ENE | 0 | 0.00 |
| 3 | 07/25 | 22:00 | 71 | 68 | 93 | 29.85 | ENE | 0 | 0.00 |
| 4 | 07/25 | 21:00 | 72 | 70 | 95 | 29.84 | S | 6 | 0.23 |
| 5 | 07/25 | 20:00 | 76 | 68 | 78 | 29.85 | WSW | 5 | 0.01 |
| 6 | 07/25 | 19:00 | 83 | 66 | 58 | 29.79 | NNE | 18 | 0.00 |
| 7 | 07/25 | 18:00 | 92 | 71 | 52 | 29.74 | SSW | 2 | 0.00 |
| 8 | 07/25 | 17:00 | 94 | 72 | 51 | 29.72 | SSE | 8 | 0.00 |
| 9 | 07/25 | 16:00 | 95 | 73 | 50 | 29.75 | S | 4 | 0.00 |
| 10 | 07/25 | 15:00 | 93 | 73 | 53 | 29.76 | S | 8 | 0.00 |
| 11 | 07/25 | 14:00 | 93 | 74 | 56 | 29.79 | SSE | 4 | 0.00 |
| 12 | 07/25 | 13:00 | 89 | 75 | 64 | 29.83 | S | 4 | 0.05 |
| 13 | 07/25 | 12:00 | 89 | 72 | 59 | 29.85 | SSW | 4 | 0.00 |
| 14 | 07/25 | 11:00 | 87 | 71 | 60 | 29.88 | S | 1 | 0.00 |
| 15 | 07/25 | 10:00 | 82 | 72 | 74 | 29.88 | SE | 3 | 0.00 |
| 16 | 07/25 | 09:00 | 79 | 73 | 83 | 29.88 | S | 0 | 0.00 |
| 17 | 07/25 | 08:00 | 75 | 72 | 91 | 29.89 | N | 0 | 0.00 |
| 18 | 07/25 | 07:00 | 73 | 70 | 92 | 29.89 | NNE | 0 | 0.00 |
| 19 | 07/25 | 06:00 | 73 | 70 | 91 | 29.89 | ESE | 0 | 0.00 |
| 20 | 07/25 | 05:00 | 73 | 70 | 93 | 29.87 | S | 0 | 0.00 |
| 21 | 07/25 | 04:00 | 74 | 70 | 88 | 29.88 | S | 0 | 0.00 |
| 22 | 07/25 | 03:00 | 75 | 69 | 82 | 29.89 | N | 5 | 0.00 |
| 23 | 07/25 | 02:00 | 75 | 68 | 81 | 29.87 | ESE | 0 | 0.00 |
| 24 | 07/25 | 01:00 | 77 | 69 | 78 | 29.89 | S | 0 | 0.00 |